Time;durP1;ratioP1;P1;durP2;ratioP2;P2;SDS_P1;SDS_P2;PMS_P1;PMS_P2;Temp;Humidity;BMP_temperature;BMP_pressure;BME280_temperature;BME280_humidity;BME280_pressure;Samples;Min_cycle;Max_cycle;Signal;HPM_P1;HPM_P2
2022/08/20 00:03:26;;;;;;;12.65;5.50;;;;;;;23.77;65.40;99273.81;7793202;32;39340;-71
2022/08/20 00:07:42;;;;;;;9.07;5.20;;;;;;;23.79;65.71;99276.25;7765789;32;40848;-72
2022/08/20 00:11:59;;;;;;;12.95;5.82;;;;;;;24.00;64.39;99293.28;7765825;32;38598;-71
2022/08/20 00:16:17;;;;;;;11.70;5.95;;;;;;;24.00;64.52;99267.44;7781848;32;37868;-71
2022/08/20 00:20:37;;;;;;;14.73;5.93;;;;;;;23.69;65.53;99277.66;7793415;32;38971;-71
2022/08/20 00:24:55;;;;;;;13.15;5.75;;;;;;;23.91;64.72;99270.50;7792995;32;39881;-72
2022/08/20 00:29:11;;;;;;;16.48;6.00;;;;;;;23.92;65.17;99282.41;7792866;32;38718;-71
2022/08/20 00:33:31;;;;;;;14.70;5.40;;;;;;;23.88;65.19;99274.03;7791529;32;37068;-71
2022/08/20 00:37:47;;;;;;;12.13;5.40;;;;;;;23.97;64.47;99266.22;7765829;32;39125;-72
2022/08/20 00:42:04;;;;;;;13.10;5.60;;;;;;;23.81;64.00;99266.34;7765697;32;40821;-72
2022/08/20 00:46:24;;;;;;;11.27;5.30;;;;;;;23.55;65.39;99271.88;7765400;32;38651;-72
2022/08/20 00:50:46;;;;;;;18.92;5.85;;;;;;;23.62;65.34;99247.75;7752267;32;37013;-71
2022/08/20 00:55:05;;;;;;;11.68;5.95;;;;;;;23.44;65.91;99244.69;7765388;32;40444;-71
2022/08/20 00:59:25;;;;;;;12.07;5.53;;;;;;;23.62;64.76;99246.94;7751675;32;39899;-71
2022/08/20 01:03:41;;;;;;;15.18;5.05;;;;;;;23.58;65.24;99254.44;7768535;32;38741;-71
2022/08/20 01:07:57;;;;;;;13.43;5.60;;;;;;;23.68;64.52;99241.88;7791234;32;37688;-71
2022/08/20 01:12:15;;;;;;;12.40;5.50;;;;;;;23.59;64.84;99237.38;7770791;32;39267;-71
2022/08/20 01:16:31;;;;;;;12.98;5.57;;;;;;;23.65;64.39;99229.53;7765076;32;40545;-71
2022/08/20 01:20:51;;;;;;;13.98;5.57;;;;;;;23.75;63.92;99219.72;7765190;32;37867;-72
2022/08/20 01:25:11;;;;;;;12.77;5.37;;;;;;;23.62;64.13;99225.50;7751710;32;36755;-71
2022/08/20 01:29:33;;;;;;;14.05;5.35;;;;;;;23.72;63.43;99212.94;7751702;32;39971;-71
2022/08/20 01:33:51;;;;;;;12.40;5.35;;;;;;;23.84;63.04;99217.50;7764921;32;40457;-72
2022/08/20 01:38:08;;;;;;;16.80;5.93;;;;;;;23.99;62.28;99204.56;7764847;32;37780;-72
2022/08/20 01:42:43;;;;;;;10.95;4.80;;;;;;;23.77;62.87;99214.59;7764785;32;37763;-72
2022/08/20 01:47:14;;;;;;;12.20;5.50;;;;;;;23.43;64.56;99217.25;7760683;32;39951;-72
2022/08/20 01:51:30;;;;;;;11.30;4.85;;;;;;;23.42;64.45;99215.63;7791749;32;39906;-72
2022/08/20 01:55:47;;;;;;;11.82;5.70;;;;;;;23.45;64.03;99209.31;7791492;32;37967;-72
2022/08/20 02:00:13;;;;;;;14.55;6.50;;;;;;;23.38;64.12;99206.44;7790106;32;36763;-72
2022/08/20 02:04:35;;;;;;;11.15;5.60;;;;;;;23.12;65.17;99205.19;7790253;32;39350;-72
2022/08/20 02:08:56;;;;;;;15.63;5.65;;;;;;;23.27;64.69;99191.53;7791331;32;39665;-72
2022/08/20 02:13:13;;;;;;;15.75;6.12;;;;;;;23.15;65.43;99190.56;7791263;32;37241;-73
2022/08/20 02:17:29;;;;;;;13.55;6.18;;;;;;;23.23;65.37;99195.06;7790682;32;37527;-72
2022/08/20 02:21:51;;;;;;;12.60;5.20;;;;;;;23.15;65.48;99201.69;7791223;32;38931;-72
2022/08/20 02:26:08;;;;;;;15.32;5.65;;;;;;;23.20;65.29;99195.81;7777629;32;39979;-72
2022/08/20 02:30:28;;;;;;;14.43;6.03;;;;;;;23.26;65.02;99193.50;7787605;32;38066;-74
2022/08/20 02:34:45;;;;;;;17.77;6.43;;;;;;;23.25;65.02;99212.19;7763784;32;37177;-73
2022/08/20 02:39:04;;;;;;;12.73;6.12;;;;;;;23.15;65.70;99206.44;7763652;32;39877;-72
2022/08/20 02:43:22;;;;;;;11.20;5.68;;;;;;;22.67;67.43;99235.31;7750160;32;40794;-72
2022/08/20 02:47:38;;;;;;;17.58;5.78;;;;;;;22.87;66.38;99226.97;7763241;32;37929;-72
2022/08/20 02:51:54;;;;;;;12.65;5.25;;;;;;;22.92;66.70;99236.97;7763229;32;37737;-71
2022/08/20 02:56:11;;;;;;;18.90;6.43;;;;;;;22.80;66.50;99241.53;7763849;32;40034;-72
2022/08/20 03:00:30;;;;;;;16.25;6.35;;;;;;;22.71;67.06;99240.94;7762946;32;40042;-72
2022/08/20 03:04:53;;;;;;;14.93;6.35;;;;;;;22.85;66.69;99238.44;7762695;32;37810;-71
2022/08/20 03:09:09;;;;;;;10.50;5.70;;;;;;;22.91;66.56;99230.59;7762829;32;36878;-72
2022/08/20 03:13:25;;;;;;;15.43;6.72;;;;;;;23.01;66.36;99229.22;7784226;32;38936;-72
2022/08/20 03:17:42;;;;;;;13.93;6.07;;;;;;;22.80;66.89;99246.25;7789692;32;39676;-72
2022/08/20 03:21:58;;;;;;;15.00;6.37;;;;;;;22.95;66.18;99252.91;7789524;32;37962;-72
2022/08/20 03:26:15;;;;;;;15.57;5.80;;;;;;;23.01;66.20;99245.87;7789504;32;37803;-72
2022/08/20 03:30:31;;;;;;;15.00;6.43;;;;;;;23.23;65.42;99247.91;7789092;32;39859;-72
2022/08/20 03:34:47;;;;;;;14.00;7.07;;;;;;;22.99;66.23;99264.88;7793447;32;40050;-71
2022/08/20 03:39:09;;;;;;;11.07;7.00;;;;;;;22.87;66.78;99280.56;7793459;32;38500;-71
2022/08/20 03:43:26;;;;;;;18.80;6.40;;;;;;;22.93;66.58;99277.50;7793523;32;37210;-71
2022/08/20 03:47:42;;;;;;;13.57;7.43;;;;;;;22.57;67.97;99271.22;7793372;32;39345;-72
2022/08/20 03:51:58;;;;;;;12.48;6.80;;;;;;;22.45;68.64;99270.16;7793332;32;40091;-72
2022/08/20 03:56:16;;;;;;;16.55;7.43;;;;;;;22.58;68.22;99278.38;7791498;32;37830;-72
2022/08/20 04:00:47;;;;;;;17.35;7.25;;;;;;;22.71;67.65;99281.81;7793169;32;37037;-72
2022/08/20 04:05:04;;;;;;;14.73;7.03;;;;;;;22.39;69.17;99293.06;7793259;32;40003;-72
2022/08/20 04:09:20;;;;;;;13.20;6.65;;;;;;;22.60;68.36;99296.28;7793127;32;41222;-72
2022/08/20 04:13:37;;;;;;;15.63;6.55;;;;;;;22.75;67.88;99293.78;7792931;32;38706;-72
2022/08/20 04:17:58;;;;;;;16.52;7.70;;;;;;;22.84;67.53;99286.06;7793041;32;37110;-72
2022/08/20 04:22:14;;;;;;;19.12;7.18;;;;;;;22.82;67.45;99280.06;7793103;32;39304;-72
2022/08/20 04:26:30;;;;;;;14.25;7.37;;;;;;;22.92;67.26;99275.88;7778738;32;40715;-72
2022/08/20 04:30:46;;;;;;;14.57;7.00;;;;;;;23.01;66.79;99277.25;7765694;32;38635;-71
2022/08/20 04:35:10;;;;;;;15.35;7.53;;;;;;;23.08;66.53;99287.75;7765705;32;37857;-73
2022/08/20 04:39:26;;;;;;;17.08;8.73;;;;;;;22.95;67.22;99289.03;7765704;32;40010;-72
2022/08/20 04:43:42;;;;;;;16.95;8.10;;;;;;;22.94;66.99;99299.37;7765452;32;41192;-72
2022/08/20 04:48:05;;;;;;;16.27;9.30;;;;;;;22.97;67.13;99283.91;7765467;32;37984;-72
2022/08/20 04:52:27;;;;;;;19.48;9.13;;;;;;;23.07;66.82;99283.34;7766806;32;36968;-72
2022/08/20 04:56:44;;;;;;;15.35;8.82;;;;;;;23.01;67.17;99287.59;7772961;32;39295;-72
2022/08/20 05:01:04;;;;;;;19.02;9.60;;;;;;;23.07;67.06;99283.34;7777681;32;40722;-72
2022/08/20 05:05:21;;;;;;;17.70;8.82;;;;;;;23.01;67.47;99291.16;7791317;32;37951;-71
2022/08/20 05:09:37;;;;;;;21.58;9.18;;;;;;;22.89;68.28;99294.09;7792494;32;37598;-77
2022/08/20 05:13:58;;;;;;;24.60;9.48;;;;;;;22.81;68.94;99300.69;7752935;32;39466;-75
2022/08/20 05:18:18;;;;;;;19.12;9.88;;;;;;;23.11;68.37;99306.47;7765240;32;40841;-76
2022/08/20 05:22:35;;;;;;;20.05;9.27;;;;;;;23.20;68.13;99298.69;7765458;32;37922;-74
2022/08/20 05:26:54;;;;;;;21.52;9.95;;;;;;;23.30;67.34;99285.34;7770407;32;36954;-76
2022/08/20 05:31:10;;;;;;;18.10;9.35;;;;;;;23.10;68.15;99281.81;7774866;32;40104;-74
2022/08/20 05:35:26;;;;;;;15.88;9.30;;;;;;;23.19;67.75;99291.50;7768302;32;40760;-73
2022/08/20 05:39:43;;;;;;;17.08;8.27;;;;;;;23.24;67.53;99299.53;7773591;32;38661;-75
2022/08/20 05:44:00;;;;;;;17.80;9.35;;;;;;;22.88;68.22;99292.47;7764867;32;36672;-76
2022/08/20 05:48:21;;;;;;;19.65;8.13;;;;;;;23.06;67.50;99277.00;7764744;32;40104;-76
2022/08/20 05:52:38;;;;;;;16.87;8.88;;;;;;;23.31;67.37;99264.72;7750689;32;40810;-76
2022/08/20 05:56:55;;;;;;;18.67;8.43;;;;;;;23.58;66.88;99274.72;7764439;32;38066;-72
2022/08/20 06:01:11;;;;;;;19.40;8.35;;;;;;;23.83;66.40;99257.62;7766793;32;36863;-74
2022/08/20 06:05:27;;;;;;;20.05;8.27;;;;;;;24.00;65.95;99248.75;7773936;32;39244;-76
2022/08/20 06:09:43;;;;;;;15.75;8.02;;;;;;;24.17;65.69;99244.63;7764826;32;38379;-75
2022/08/20 06:14:00;;;;;;;22.15;7.75;;;;;;;24.06;66.32;99256.78;7776995;32;37861;-75
2022/08/20 06:18:16;;;;;;;19.85;6.93;;;;;;;24.04;65.40;99271.06;7788250;32;37063;-75
2022/08/20 06:22:43;;;;;;;17.45;7.62;;;;;;;23.96;65.17;99275.75;7766985;32;39251;-75
2022/08/20 06:27:01;;;;;;;14.27;6.57;;;;;;;23.60;65.91;99280.72;7765757;32;39863;-74
2022/08/20 06:31:17;;;;;;;16.23;6.90;;;;;;;23.58;66.09;99274.72;7778939;32;37899;-74
2022/08/20 06:35:36;;;;;;;16.83;7.20;;;;;;;23.98;65.87;99253.91;7790590;32;36974;-75
2022/08/20 06:39:52;;;;;;;16.48;6.47;;;;;;;24.27;65.77;99248.72;7763100;32;38288;-75
2022/08/20 06:44:09;;;;;;;21.83;7.30;;;;;;;24.46;65.84;99249.78;7748928;32;41170;-75
2022/08/20 06:48:25;;;;;;;15.52;6.85;;;;;;;23.58;68.16;99269.16;7763065;32;38707;-76
2022/08/20 06:52:41;;;;;;;17.30;7.62;;;;;;;24.06;66.15;99270.69;7762256;32;36847;-78
2022/08/20 06:57:08;;;;;;;15.45;7.95;;;;;;;24.02;66.74;99287.34;7764122;32;39942;-76
2022/08/20 07:01:24;;;;;;;19.40;9.55;;;;;;;23.84;67.66;99308.56;7772697;32;40777;-76
2022/08/20 07:05:42;;;;;;;20.95;10.00;;;;;;;23.07;69.77;99322.25;7763707;32;37890;-75
2022/08/20 07:10:09;;;;;;;17.27;10.50;;;;;;;23.26;69.74;99324.22;7768275;32;36509;-75
2022/08/20 07:14:25;;;;;;;21.95;11.70;;;;;;;23.29;69.33;99329.03;7766267;32;39907;-76
2022/08/20 07:18:42;;;;;;;20.85;11.82;;;;;;;22.83;70.20;99343.59;7765210;32;39985;-76
2022/08/20 07:22:59;;;;;;;20.67;11.85;;;;;;;22.80;70.10;99354.63;7766250;32;38846;-74
2022/08/20 07:27:20;;;;;;;23.58;10.65;;;;;;;22.55;70.96;99382.69;7766481;32;37721;-73
2022/08/20 07:36:12;;;;;;;27.87;12.27;;;;;;;22.44;71.84;99388.00;7775278;32;39942;-74
2022/08/20 07:40:30;;;;;;;22.33;12.65;;;;;;;23.09;70.58;99358.84;7792215;32;38716;-74
2022/08/20 07:44:47;;;;;;;22.80;12.95;;;;;;;23.27;71.63;99358.38;7777086;32;36796;-73
2022/08/20 07:49:08;;;;;;;21.27;12.68;;;;;;;23.58;70.46;99338.72;7766042;32;39269;-74
2022/08/20 07:53:26;;;;;;;25.70;13.40;;;;;;;22.92;72.78;99364.81;7782873;32;40819;-73
2022/08/20 07:57:46;;;;;;;18.95;11.43;;;;;;;22.81;73.08;99370.16;7792318;32;37495;-73
2022/08/20 08:02:02;;;;;;;24.05;11.07;;;;;;;22.46;73.69;99387.62;7776589;32;37772;-74
2022/08/20 08:06:20;;;;;;;21.00;10.65;;;;;;;22.22;74.30;99394.19;7768569;32;38926;-74
2022/08/20 08:10:54;;;;;;;21.70;11.10;;;;;;;22.21;73.83;99389.78;7792973;32;39897;-76
2022/08/20 08:15:14;;;;;;;17.62;9.48;;;;;;;22.16;73.32;99398.37;7779347;32;38699;-76
2022/08/20 08:19:37;;;;;;;16.92;11.40;;;;;;;22.43;71.60;99399.47;7792692;32;37830;-72
2022/08/20 08:23:53;;;;;;;21.10;10.35;;;;;;;22.48;71.29;99413.06;7776750;32;39215;-76
2022/08/20 08:28:10;;;;;;;22.20;11.68;;;;;;;22.62;70.49;99423.72;7765592;32;40848;-73
2022/08/20 08:32:29;;;;;;;20.60;12.68;;;;;;;22.20;71.92;99427.06;7765360;32;39288;-73
2022/08/20 08:36:46;;;;;;;25.80;14.02;;;;;;;22.35;72.25;99429.03;7765645;32;37148;-73
2022/08/20 08:41:17;;;;;;;19.77;13.95;;;;;;;22.35;72.33;99431.00;7780715;32;40089;-73
2022/08/20 08:45:44;;;;;;;25.73;13.82;;;;;;;22.21;73.18;99448.09;7766654;32;40820;-74
2022/08/20 08:50:01;;;;;;;24.15;15.18;;;;;;;22.24;72.37;99452.94;7778984;32;38649;-73
2022/08/20 08:54:23;;;;;;;24.05;14.30;;;;;;;22.30;72.60;99445.97;7791722;32;37912;-73
2022/08/20 08:58:40;;;;;;;24.58;13.85;;;;;;;22.62;71.07;99424.50;7768904;32;39166;-73
2022/08/20 09:03:14;;;;;;;29.48;14.50;;;;;;;22.60;71.24;99412.16;7792428;32;39855;-74
2022/08/20 09:07:32;;;;;;;22.17;14.05;;;;;;;22.67;70.77;99428.97;7778754;32;37989;-73
2022/08/20 09:11:51;;;;;;;27.45;14.63;;;;;;;22.65;70.81;99429.34;7791904;32;37257;-73
2022/08/20 09:16:08;;;;;;;26.60;14.27;;;;;;;22.67;71.22;99428.97;7765970;32;39424;-73
2022/08/20 09:20:25;;;;;;;28.65;14.52;;;;;;;22.78;70.76;99432.00;7765828;32;41277;-73
2022/08/20 09:24:42;;;;;;;28.50;13.90;;;;;;;23.04;69.68;99417.47;7765847;32;38826;-74
2022/08/20 09:28:58;;;;;;;23.55;13.38;;;;;;;22.97;69.91;99422.88;7765631;32;37105;-73
2022/08/20 09:33:15;;;;;;;27.87;14.77;;;;;;;23.11;69.80;99425.19;7776433;32;39070;-75
2022/08/20 09:37:32;;;;;;;25.90;14.23;;;;;;;23.20;69.71;99421.03;7791805;32;40633;-73
2022/08/20 09:41:52;;;;;;;25.67;14.87;;;;;;;23.24;69.86;99426.66;7791817;32;38030;-73
2022/08/20 09:46:08;;;;;;;57.85;26.75;;;;;;;23.48;68.92;99424.75;7778135;32;37922;-73
2022/08/20 09:50:26;;;;;;;49.42;23.25;;;;;;;23.28;68.59;99437.84;7774986;32;39925;-72
2022/08/20 09:54:42;;;;;;;29.70;16.05;;;;;;;23.20;68.17;99436.91;7783804;32;40429;-72
2022/08/20 09:59:01;;;;;;;18.35;10.90;;;;;;;23.22;67.87;99440.94;7772524;32;37748;-73
2022/08/20 10:03:18;;;;;;;19.62;9.05;;;;;;;23.57;66.61;99476.19;7791277;32;37083;-72
2022/08/20 10:07:37;;;;;;;69.45;45.30;;;;;;;23.36;66.14;99492.47;7791067;32;39368;-74
2022/08/20 10:11:53;;;;;;;18.55;8.73;;;;;;;23.16;66.63;99494.41;7767339;32;39938;-71
2022/08/20 10:16:09;;;;;;;17.60;7.97;;;;;;;23.25;66.52;99451.31;7766527;32;38019;-72
2022/08/20 10:20:25;;;;;;;18.25;8.30;;;;;;;23.28;67.09;99458.13;7764032;32;37035;-73
2022/08/20 10:24:42;;;;;;;16.20;8.10;;;;;;;23.38;66.66;99426.16;7764005;32;39170;-73
2022/08/20 10:28:58;;;;;;;14.90;6.80;;;;;;;23.39;66.91;99425.78;7749258;32;40053;-73
2022/08/20 10:33:14;;;;;;;22.73;13.85;;;;;;;23.20;67.49;99401.56;7782323;32;37700;-73
2022/08/20 10:37:31;;;;;;;19.05;12.57;;;;;;;23.24;67.04;99416.34;7783236;32;37108;-74
2022/08/20 10:41:47;;;;;;;23.17;9.98;;;;;;;23.26;67.52;99399.28;7786642;32;39106;-73
2022/08/20 10:46:03;;;;;;;16.90;11.32;;;;;;;23.23;66.84;99398.06;7766264;32;39708;-72
2022/08/20 10:50:19;;;;;;;16.42;9.75;;;;;;;23.35;66.77;99388.75;7782380;32;37767;-72
2022/08/20 10:54:35;;;;;;;13.38;7.70;;;;;;;23.05;69.01;99371.84;7793191;32;36855;-72
2022/08/20 10:58:51;;;;;;;18.17;9.70;;;;;;;23.51;67.45;99385.06;7767294;32;38926;-73
2022/08/20 11:03:07;;;;;;;18.55;7.57;;;;;;;23.85;66.29;99376.94;7766119;32;40353;-72
2022/08/20 11:07:28;;;;;;;11.80;5.85;;;;;;;24.00;66.08;99385.16;7773020;32;38838;-72
2022/08/20 11:12:05;;;;;;;16.20;7.32;;;;;;;23.95;65.75;99374.34;7765382;32;37855;-73
2022/08/20 11:16:21;;;;;;;13.05;5.20;;;;;;;24.36;62.88;99371.00;7752009;32;39012;-73
2022/08/20 11:20:37;;;;;;;14.52;5.70;;;;;;;24.19;62.93;99383.47;7766151;32;39877;-74
2022/08/20 11:24:54;;;;;;;10.70;5.20;;;;;;;24.00;64.82;99389.94;7775476;32;37959;-72
2022/08/20 11:29:10;;;;;;;13.43;5.57;;;;;;;24.08;64.12;99390.87;7765897;32;37216;-72
2022/08/20 11:33:26;;;;;;;14.63;5.20;;;;;;;24.13;63.98;99410.06;7765259;32;40052;-74
2022/08/20 11:37:42;;;;;;;10.85;4.72;;;;;;;24.03;64.39;99432.94;7765333;32;40033;-73
2022/08/20 11:41:58;;;;;;;12.23;5.80;;;;;;;23.78;64.17;99433.25;7765343;32;38700;-74
2022/08/20 11:46:15;;;;;;;13.85;5.80;;;;;;;23.65;65.65;99431.84;7779886;32;37784;-74
2022/08/20 11:50:31;;;;;;;12.45;5.15;;;;;;;23.94;64.03;99435.94;7778310;32;40407;-74
2022/08/20 11:54:47;;;;;;;11.85;5.05;;;;;;;24.07;63.51;99412.31;7768112;32;39732;-72
2022/08/20 11:59:09;;;;;;;10.70;5.73;;;;;;;24.13;64.68;99404.47;7792862;32;37654;-74
2022/08/20 12:03:26;;;;;;;10.85;4.80;;;;;;;24.08;64.62;99397.25;7774761;32;37740;-75
2022/08/20 12:07:43;;;;;;;7.10;3.90;;;;;;;24.29;63.59;99390.41;7766031;32;37442;-75
2022/08/20 12:11:59;;;;;;;12.57;4.97;;;;;;;24.38;61.52;99391.72;7765338;32;39809;-74
2022/08/20 12:16:17;;;;;;;12.13;4.60;;;;;;;24.43;63.36;99393.41;7765093;32;38530;-73
2022/08/20 12:20:36;;;;;;;11.98;4.37;;;;;;;24.60;62.45;99374.56;7766124;32;37092;-73
2022/08/20 12:24:55;;;;;;;12.40;4.95;;;;;;;24.35;64.16;99361.84;7765733;32;39018;-72
2022/08/20 12:29:12;;;;;;;12.48;4.68;;;;;;;24.68;62.09;99353.97;7765651;32;40025;-73
2022/08/20 12:33:28;;;;;;;14.00;5.05;;;;;;;24.19;64.15;99358.41;7765517;32;37921;-74
2022/08/20 12:37:45;;;;;;;11.90;4.30;;;;;;;24.19;64.09;99344.50;7773641;32;36679;-74
2022/08/20 12:42:02;;;;;;;8.57;3.87;;;;;;;24.79;61.31;99337.41;7763075;32;39301;-72
2022/08/20 12:46:18;;;;;;;13.05;4.57;;;;;;;24.65;62.00;99333.25;7763257;32;40066;-76
2022/08/20 12:50:36;;;;;;;14.73;4.57;;;;;;;25.05;59.42;99315.00;7779613;32;38691;-76
2022/08/20 12:54:53;;;;;;;11.35;4.15;;;;;;;24.61;59.99;99310.09;7752068;32;37013;-75
2022/08/20 12:59:09;;;;;;;14.45;4.82;;;;;;;24.34;59.26;99310.09;7751531;32;39280;-74
2022/08/20 13:03:25;;;;;;;10.65;4.55;;;;;;;24.61;60.24;99298.97;7765314;32;39841;-74
2022/08/20 13:07:47;;;;;;;8.07;4.10;;;;;;;24.62;59.29;99303.34;7769955;32;38673;-74
2022/08/20 13:12:04;;;;;;;10.90;4.55;;;;;;;24.37;60.39;99289.06;7764609;32;38740;-76
2022/08/20 13:16:20;;;;;;;9.18;4.60;;;;;;;24.78;60.19;99285.59;7764899;32;39305;-76
2022/08/20 13:20:36;;;;;;;13.05;4.57;;;;;;;24.86;59.94;99278.94;7765053;32;39869;-75
2022/08/20 13:24:53;;;;;;;13.70;4.87;;;;;;;24.33;62.28;99269.50;7764627;32;38623;-74
2022/08/20 13:29:09;;;;;;;9.38;4.28;;;;;;;24.88;61.55;99265.41;7764738;32;38319;-75
2022/08/20 13:33:25;;;;;;;10.52;4.95;;;;;;;24.37;60.10;99264.78;7764220;32;39010;-75
2022/08/20 13:37:41;;;;;;;12.35;4.60;;;;;;;24.62;61.13;99255.97;7763953;32;40745;-74
2022/08/20 13:41:57;;;;;;;10.40;3.75;;;;;;;24.45;61.21;99250.94;7764482;32;37855;-75
2022/08/20 13:46:14;;;;;;;11.85;4.28;;;;;;;24.28;61.18;99249.53;7763862;32;37711;-74
2022/08/20 13:50:30;;;;;;;10.15;4.25;;;;;;;24.58;61.49;99243.97;7763509;32;40014;-75
2022/08/20 13:54:46;;;;;;;12.63;4.65;;;;;;;24.53;59.49;99238.72;7763385;32;40789;-76
2022/08/20 13:59:02;;;;;;;9.38;3.20;;;;;;;24.83;60.08;99241.47;7763843;32;37870;-75
2022/08/20 14:03:19;;;;;;;13.75;3.65;;;;;;;24.96;58.98;99241.19;7764421;32;37651;-75
2022/08/20 14:07:42;;;;;;;13.88;4.00;;;;;;;25.21;58.22;99241.44;7736123;32;39274;-79
2022/08/20 14:11:58;;;;;;;8.73;3.42;;;;;;;25.28;57.50;99249.91;7737300;32;40023;-79
2022/08/20 14:16:14;;;;;;;10.20;3.60;;;;;;;25.54;57.44;99250.94;7753147;32;38192;-80
2022/08/20 14:20:43;;;;;;;7.07;3.15;;;;;;;25.32;59.56;99250.78;7763923;32;37896;-79
2022/08/20 14:25:02;;;;;;;11.85;3.60;;;;;;;25.46;57.63;99242.50;7764115;32;38310;-79
2022/08/20 14:29:21;;;;;;;7.22;3.30;;;;;;;25.45;57.14;99242.91;7748248;32;39671;-79
2022/08/20 14:33:37;;;;;;;9.25;3.55;;;;;;;25.38;56.83;99254.78;7736892;32;36878;-79
2022/08/20 14:37:59;;;;;;;9.50;3.83;;;;;;;25.38;57.83;99265.94;7736821;32;36932;-79
2022/08/20 14:42:16;;;;;;;10.18;3.30;;;;;;;25.08;58.30;99269.63;7736695;32;39235;-79
2022/08/20 14:46:32;;;;;;;10.27;3.33;;;;;;;25.25;58.91;99272.97;7744995;32;39083;-80
2022/08/20 14:50:48;;;;;;;16.00;3.83;;;;;;;25.46;57.19;99273.22;7763387;32;38757;-79
2022/08/20 14:55:07;;;;;;;9.48;3.70;;;;;;;25.39;58.49;99273.16;7763216;32;36934;-82
2022/08/20 14:59:23;;;;;;;9.65;3.30;;;;;;;25.49;59.10;99258.50;7763186;32;39688;-80
2022/08/20 15:03:40;;;;;;;7.75;3.12;;;;;;;25.62;58.84;99247.81;7763138;32;39873;-79
2022/08/20 15:07:57;;;;;;;10.93;3.28;;;;;;;25.78;58.58;99228.00;7783626;32;38025;-80
2022/08/20 15:12:14;;;;;;;9.07;3.75;;;;;;;25.76;58.92;99213.63;7766413;32;37877;-79
2022/08/20 15:16:30;;;;;;;9.93;3.05;;;;;;;25.65;59.13;99235.88;7762590;32;40126;-80
2022/08/20 15:20:46;;;;;;;10.25;3.65;;;;;;;25.60;57.80;99255.78;7762523;32;39848;-79
2022/08/20 15:25:04;;;;;;;12.85;4.05;;;;;;;25.65;57.72;99265.78;7787749;32;37870;-81
2022/08/20 15:29:20;;;;;;;15.10;3.85;;;;;;;25.42;58.46;99280.75;7779406;32;36934;-79
2022/08/20 15:33:39;;;;;;;9.98;3.50;;;;;;;25.47;59.03;99285.97;7793627;32;39417;-79
2022/08/20 15:37:57;;;;;;;9.32;3.37;;;;;;;25.52;58.84;99275.63;7785216;32;40563;-72
2022/08/20 15:42:13;;;;;;;10.40;3.30;;;;;;;25.60;59.07;99278.09;7766148;32;37950;-75
2022/08/20 15:46:29;;;;;;;10.88;3.45;;;;;;;25.39;60.22;99277.91;7752115;32;37678;-76
2022/08/20 15:51:13;;;;;;;8.00;3.42;;;;;;;25.49;58.71;99266.84;7766146;32;39988;-76
2022/08/20 15:55:30;;;;;;;9.15;3.40;;;;;;;25.64;58.24;99258.59;7766126;32;40808;-76
2022/08/20 16:00:14;;;;;;;6.75;2.95;;;;;;;25.34;57.69;99259.53;7752006;32;38097;-75
2022/08/20 16:04:36;;;;;;;31.60;20.55;;;;;;;25.41;57.73;99254.03;7765890;32;37054;-75
2022/08/20 16:09:13;;;;;;;13.18;6.05;;;;;;;25.41;58.31;99265.19;7780435;32;39300;-76
2022/08/20 16:13:40;;;;;;;11.95;5.43;;;;;;;25.37;58.29;99264.38;7769234;32;40728;-75
2022/08/20 16:18:09;;;;;;;8.27;3.87;;;;;;;25.33;59.09;99269.09;7765692;32;37891;-75
2022/08/20 16:22:29;;;;;;;10.98;3.67;;;;;;;25.35;58.38;99255.56;7751517;32;38117;-74
2022/08/20 16:27:03;;;;;;;7.90;4.22;;;;;;;25.44;58.32;99253.25;7769678;32;39300;-76
2022/08/20 16:31:23;;;;;;;11.07;4.37;;;;;;;25.24;58.85;99249.84;7782623;32;40555;-75
2022/08/20 16:36:10;;;;;;;14.60;4.85;;;;;;;25.37;58.47;99249.59;7748569;32;37902;-76
2022/08/20 16:40:31;;;;;;;8.93;4.00;;;;;;;25.22;59.29;99240.28;7761764;32;37179;-76
2022/08/20 16:44:49;;;;;;;22.40;9.40;;;;;;;25.09;59.73;99245.31;7779145;32;39239;-76
2022/08/20 16:49:12;;;;;;;13.27;6.12;;;;;;;25.05;60.18;99247.28;7778934;32;39122;-77
2022/08/20 16:53:30;;;;;;;25.52;12.93;;;;;;;25.02;60.68;99256.41;7778638;32;37856;-77
2022/08/20 16:57:47;;;;;;;15.07;5.87;;;;;;;24.91;61.32;99257.09;7792421;32;37228;-77
2022/08/20 17:02:08;;;;;;;8.70;3.97;;;;;;;24.91;61.14;99262.66;7792498;32;39709;-77
2022/08/20 17:06:44;;;;;;;13.05;4.32;;;;;;;24.77;61.78;99267.28;7792430;32;40588;-77
2022/08/20 17:11:13;;;;;;;17.42;5.47;;;;;;;24.68;61.78;99268.38;7763986;32;37506;-78
2022/08/20 17:15:33;;;;;;;13.95;5.93;;;;;;;24.60;62.61;99255.53;7763731;32;36790;-75
2022/08/20 17:19:55;;;;;;;10.48;3.80;;;;;;;24.66;62.28;99265.16;7757853;32;39990;-75
2022/08/20 17:24:21;;;;;;;13.55;6.47;;;;;;;24.09;63.25;99276.31;7752009;32;39879;-75
2022/08/20 17:28:37;;;;;;;14.07;6.87;;;;;;;24.47;62.25;99284.78;7759038;32;37817;-75
2022/08/20 17:33:01;;;;;;;14.00;6.10;;;;;;;24.38;62.87;99285.88;7764977;32;36943;-78
2022/08/20 17:37:32;;;;;;;19.62;8.35;;;;;;;24.27;63.70;99282.16;7764751;32;40308;-77
2022/08/20 17:41:51;;;;;;;16.58;5.90;;;;;;;24.35;63.15;99275.50;7760675;32;40575;-75
2022/08/20 17:46:09;;;;;;;24.95;13.38;;;;;;;24.21;63.65;99271.72;7748151;32;37859;-77
2022/08/20 17:50:30;;;;;;;21.45;6.75;;;;;;;24.20;63.62;99262.56;7736785;32;37255;-77
2022/08/20 17:54:47;;;;;;;18.45;5.95;;;;;;;24.27;63.41;99259.88;7746840;32;39321;-76
2022/08/20 17:59:23;;;;;;;13.07;5.12;;;;;;;24.22;63.67;99265.78;7735600;32;39970;-74
2022/08/20 18:03:59;;;;;;;11.57;4.55;;;;;;;24.38;62.73;99260.81;7736895;32;39001;-75
2022/08/20 18:08:29;;;;;;;10.52;5.85;;;;;;;24.32;62.72;99272.69;7749222;32;178337;-76
2022/08/20 18:13:14;;;;;;;12.15;4.87;;;;;;;24.05;63.87;99278.25;7774891;32;39214;-76
2022/08/20 18:18:04;;;;;;;15.70;4.95;;;;;;;24.03;63.54;99282.59;7766892;32;40337;-75
2022/08/20 18:22:43;;;;;;;14.35;5.12;;;;;;;23.90;63.51;99287.56;7782438;32;37975;-76
2022/08/20 18:27:07;;;;;;;13.05;5.00;;;;;;;23.76;63.80;99293.69;7763117;32;36900;-76
2022/08/20 18:31:45;;;;;;;14.32;5.18;;;;;;;23.71;63.76;99299.56;7766357;32;39336;-76
2022/08/20 18:36:08;;;;;;;19.75;4.65;;;;;;;23.57;64.18;99295.34;7774972;32;40027;-75
2022/08/20 18:40:31;;;;;;;14.05;4.72;;;;;;;23.59;64.26;99292.22;7773540;32;37240;-75
2022/08/20 18:44:51;;;;;;;13.45;4.57;;;;;;;23.66;63.90;99297.09;7772900;32;37968;-76
2022/08/20 18:49:11;;;;;;;13.30;4.85;;;;;;;23.55;64.34;99294.94;7774378;32;39259;-75
2022/08/20 18:53:32;;;;;;;14.00;4.93;;;;;;;23.57;64.34;99289.78;7761456;32;39865;-75
2022/08/20 18:57:54;;;;;;;15.43;5.95;;;;;;;23.43;64.91;99292.34;7771907;32;38607;-75
2022/08/20 19:02:32;;;;;;;17.67;5.62;;;;;;;23.42;64.81;99288.75;7775506;32;37005;-76
2022/08/20 19:06:54;;;;;;;11.75;4.75;;;;;;;23.37;64.91;99279.91;7766615;32;40048;-76
2022/08/20 19:11:33;;;;;;;13.52;5.50;;;;;;;23.35;64.91;99287.81;7791333;32;39900;-75
2022/08/20 19:15:54;;;;;;;12.93;5.47;;;;;;;23.36;65.02;99301.34;7769661;32;38608;-75
2022/08/20 19:20:18;;;;;;;15.98;6.53;;;;;;;23.24;66.05;99304.31;7761185;32;37240;-75
2022/08/20 19:24:34;;;;;;;12.60;5.45;;;;;;;23.06;66.71;99304.78;7784449;32;40097;-75
2022/08/20 19:29:09;;;;;;;18.77;5.57;;;;;;;23.04;66.82;99296.00;7789832;32;39870;-76
2022/08/20 19:33:29;;;;;;;14.57;5.85;;;;;;;23.01;67.22;99304.25;7769897;32;37904;-74
2022/08/20 19:37:47;;;;;;;12.07;5.00;;;;;;;22.81;68.37;99279.25;7762012;32;37661;-76
2022/08/20 19:42:30;;;;;;;14.07;6.28;;;;;;;23.06;67.60;99276.19;7779394;32;39747;-76
2022/08/20 19:46:47;;;;;;;16.50;7.55;;;;;;;23.05;67.75;99269.81;7772109;32;40746;-74
2022/08/20 19:51:29;;;;;;;15.85;7.75;;;;;;;22.92;68.34;99273.09;7781054;32;37155;-74
2022/08/20 19:55:55;;;;;;;12.98;6.95;;;;;;;23.09;67.64;99277.41;7784828;32;36769;-75
2022/08/20 20:00:12;;;;;;;14.65;7.30;;;;;;;22.87;68.64;99271.44;7758214;32;39015;-74
2022/08/20 20:04:37;;;;;;;21.00;7.57;;;;;;;22.88;68.41;99276.59;7786052;32;39213;-77
2022/08/20 20:09:07;;;;;;;15.60;7.97;;;;;;;22.79;68.90;99278.00;7788144;32;37914;-78
2022/08/20 20:13:25;;;;;;;15.02;7.20;;;;;;;22.81;68.71;99276.47;7765345;32;36826;-75